sensor_id;sensor_type;location;lat;lon;timestamp;pressure;altitude;pressure_sealevel;temperature;humidity
58979;BME280;44763;50.464;30.612;2024-01-10T00:01:55;101297.25;;;-4.00;100.00
58979;BME280;44763;50.464;30.612;2024-01-10T00:03:57;101299.39;;;-4.02;100.00
58979;BME280;44763;50.464;30.612;2024-01-10T00:06:00;101295.49;;;-4.04;100.00
58979;BME280;44763;50.464;30.612;2024-01-10T00:08:05;101294.59;;;-3.99;100.00
58979;BME280;44763;50.464;30.612;2024-01-10T00:10:08;101283.61;;;-3.91;100.00
58979;BME280;44763;50.464;30.612;2024-01-10T00:12:10;101274.15;;;-3.85;100.00
58979;BME280;44763;50.464;30.612;2024-01-10T00:14:12;101268.77;;;-3.85;100.00
58979;BME280;44763;50.464;30.612;2024-01-10T00:16:14;101267.23;;;-3.89;100.00
58979;BME280;44763;50.464;30.612;2024-01-10T00:18:16;101265.83;;;-3.93;100.00
58979;BME280;44763;50.464;30.612;2024-01-10T00:20:18;101265.07;;;-3.99;100.00
58979;BME280;44763;50.464;30.612;2024-01-10T00:22:20;101264.00;;;-4.09;100.00
58979;BME280;44763;50.464;30.612;2024-01-10T00:24:22;101253.46;;;-4.18;100.00
58979;BME280;44763;50.464;30.612;2024-01-10T00:26:24;101251.52;;;-4.21;100.00
58979;BME280;44763;50.464;30.612;2024-01-10T00:28:26;101263.19;;;-4.15;100.00
58979;BME280;44763;50.464;30.612;2024-01-10T00:30:28;101254.67;;;-4.07;100.00
58979;BME280;44763;50.464;30.612;2024-01-10T00:32:29;101255.22;;;-4.00;100.00
58979;BME280;44763;50.464;30.612;2024-01-10T00:34:31;101248.80;;;-4.00;100.00
58979;BME280;44763;50.464;30.612;2024-01-10T00:36:33;101248.08;;;-4.03;100.00
58979;BME280;44763;50.464;30.612;2024-01-10T00:38:36;101249.46;;;-4.03;100.00
58979;BME280;44763;50.464;30.612;2024-01-10T00:40:38;101259.37;;;-4.07;100.00
58979;BME280;44763;50.464;30.612;2024-01-10T00:42:40;101262.06;;;-4.09;100.00
58979;BME280;44763;50.464;30.612;2024-01-10T00:44:42;101259.11;;;-4.09;100.00
58979;BME280;44763;50.464;30.612;2024-01-10T00:46:43;101256.92;;;-4.10;100.00
58979;BME280;44763;50.464;30.612;2024-01-10T00:48:45;101256.02;;;-4.13;100.00
58979;BME280;44763;50.464;30.612;2024-01-10T00:50:47;101258.79;;;-4.17;100.00
58979;BME280;44763;50.464;30.612;2024-01-10T00:52:49;101251.89;;;-4.14;100.00
58979;BME280;44763;50.464;30.612;2024-01-10T00:54:51;101253.64;;;-4.07;100.00
58979;BME280;44763;50.464;30.612;2024-01-10T00:56:53;101249.20;;;-4.01;100.00
58979;BME280;44763;50.464;30.612;2024-01-10T00:58:54;101253.92;;;-3.98;100.00
58979;BME280;44763;50.464;30.612;2024-01-10T01:00:59;101257.30;;;-4.00;100.00
58979;BME280;44763;50.464;30.612;2024-01-10T01:03:01;101252.60;;;-4.03;100.00
58979;BME280;44763;50.464;30.612;2024-01-10T01:05:03;101256.58;;;-4.10;100.00
58979;BME280;44763;50.464;30.612;2024-01-10T01:07:05;101260.77;;;-4.15;100.00
58979;BME280;44763;50.464;30.612;2024-01-10T01:09:08;101253.52;;;-4.20;100.00
58979;BME280;44763;50.464;30.612;2024-01-10T01:11:09;101248.91;;;-4.21;100.00
58979;BME280;44763;50.464;30.612;2024-01-10T01:13:12;101241.67;;;-4.22;100.00
58979;BME280;44763;50.464;30.612;2024-01-10T01:15:13;101240.32;;;-4.23;100.00
58979;BME280;44763;50.464;30.612;2024-01-10T01:17:15;101234.20;;;-4.22;100.00
58979;BME280;44763;50.464;30.612;2024-01-10T01:19:17;101225.25;;;-4.16;100.00
58979;BME280;44763;50.464;30.612;2024-01-10T01:21:19;101219.95;;;-4.14;100.00
58979;BME280;44763;50.464;30.612;2024-01-10T01:23:21;101219.28;;;-4.15;100.00
58979;BME280;44763;50.464;30.612;2024-01-10T01:25:40;101212.15;;;-4.18;100.00
58979;BME280;44763;50.464;30.612;2024-01-10T01:27:41;101213.75;;;-4.23;100.00
58979;BME280;44763;50.464;30.612;2024-01-10T01:29:43;101206.79;;;-4.26;100.00
58979;BME280;44763;50.464;30.612;2024-01-10T01:31:45;101213.33;;;-4.28;100.00
58979;BME280;44763;50.464;30.612;2024-01-10T01:33:47;101207.94;;;-4.32;100.00
58979;BME280;44763;50.464;30.612;2024-01-10T01:35:49;101210.34;;;-4.39;100.00
58979;BME280;44763;50.464;30.612;2024-01-10T01:37:50;101211.52;;;-4.46;100.00
58979;BME280;44763;50.464;30.612;2024-01-10T01:39:53;101213.48;;;-4.43;100.00
58979;BME280;44763;50.464;30.612;2024-01-10T01:41:55;101207.59;;;-4.36;100.00
58979;BME280;44763;50.464;30.612;2024-01-10T01:43:57;101209.03;;;-4.30;100.00
58979;BME280;44763;50.464;30.612;2024-01-10T01:45:59;101204.06;;;-4.31;100.00
58979;BME280;44763;50.464;30.612;2024-01-10T01:48:01;101206.08;;;-4.37;100.00
58979;BME280;44763;50.464;30.612;2024-01-10T01:50:04;101207.56;;;-4.43;100.00
58979;BME280;44763;50.464;30.612;2024-01-10T01:52:07;101204.42;;;-4.46;100.00
58979;BME280;44763;50.464;30.612;2024-01-10T01:54:09;101205.95;;;-4.45;100.00
58979;BME280;44763;50.464;30.612;2024-01-10T01:56:13;101204.20;;;-4.45;100.00
58979;BME280;44763;50.464;30.612;2024-01-10T01:58:16;101196.61;;;-4.46;100.00
58979;BME280;44763;50.464;30.612;2024-01-10T02:00:18;101192.81;;;-4.46;100.00
58979;BME280;44763;50.464;30.612;2024-01-10T02:02:21;101184.11;;;-4.46;100.00
58979;BME280;44763;50.464;30.612;2024-01-10T02:04:25;101176.25;;;-4.37;100.00
58979;BME280;44763;50.464;30.612;2024-01-10T02:06:27;101165.43;;;-4.28;100.00
58979;BME280;44763;50.464;30.612;2024-01-10T02:08:31;101166.15;;;-4.29;100.00
58979;BME280;44763;50.464;30.612;2024-01-10T02:10:33;101164.75;;;-4.33;100.00
58979;BME280;44763;50.464;30.612;2024-01-10T02:12:35;101165.35;;;-4.34;100.00
58979;BME280;44763;50.464;30.612;2024-01-10T02:14:36;101155.02;;;-4.32;100.00
58979;BME280;44763;50.464;30.612;2024-01-10T02:16:38;101150.19;;;-4.33;100.00
58979;BME280;44763;50.464;30.612;2024-01-10T02:18:40;101150.08;;;-4.34;100.00
58979;BME280;44763;50.464;30.612;2024-01-10T02:20:45;101146.56;;;-4.37;100.00
58979;BME280;44763;50.464;30.612;2024-01-10T02:22:47;101147.31;;;-4.38;100.00
58979;BME280;44763;50.464;30.612;2024-01-10T02:24:53;101142.17;;;-4.32;100.00
58979;BME280;44763;50.464;30.612;2024-01-10T02:26:55;101139.24;;;-4.22;100.00
58979;BME280;44763;50.464;30.612;2024-01-10T02:28:57;101136.33;;;-4.12;100.00
58979;BME280;44763;50.464;30.612;2024-01-10T02:31:00;101138.45;;;-4.08;100.00
58979;BME280;44763;50.464;30.612;2024-01-10T02:33:02;101135.61;;;-4.11;100.00
58979;BME280;44763;50.464;30.612;2024-01-10T02:35:04;101141.65;;;-4.14;100.00
58979;BME280;44763;50.464;30.612;2024-01-10T02:37:06;101135.58;;;-4.14;100.00
58979;BME280;44763;50.464;30.612;2024-01-10T02:39:08;101132.58;;;-4.17;100.00
58979;BME280;44763;50.464;30.612;2024-01-10T02:41:10;101122.77;;;-4.19;100.00
58979;BME280;44763;50.464;30.612;2024-01-10T02:43:12;101119.02;;;-4.20;100.00
58979;BME280;44763;50.464;30.612;2024-01-10T02:45:14;101114.47;;;-4.23;100.00
58979;BME280;44763;50.464;30.612;2024-01-10T02:47:16;101117.02;;;-4.21;100.00
58979;BME280;44763;50.464;30.612;2024-01-10T02:49:18;101116.21;;;-4.12;100.00
58979;BME280;44763;50.464;30.612;2024-01-10T02:51:20;101112.17;;;-4.04;100.00
58979;BME280;44763;50.464;30.612;2024-01-10T02:53:23;101112.02;;;-3.97;100.00
58979;BME280;44763;50.464;30.612;2024-01-10T02:55:24;101112.94;;;-3.94;100.00
58979;BME280;44763;50.464;30.612;2024-01-10T02:57:26;101117.02;;;-3.97;100.00
58979;BME280;44763;50.464;30.612;2024-01-10T02:59:28;101118.84;;;-3.98;100.00
58979;BME280;44763;50.464;30.612;2024-01-10T03:01:30;101114.14;;;-3.98;100.00
58979;BME280;44763;50.464;30.612;2024-01-10T03:03:31;101116.20;;;-4.01;100.00
58979;BME280;44763;50.464;30.612;2024-01-10T03:05:34;101109.94;;;-4.04;100.00
58979;BME280;44763;50.464;30.612;2024-01-10T03:07:36;101105.55;;;-4.10;100.00
58979;BME280;44763;50.464;30.612;2024-01-10T03:09:38;101106.64;;;-4.15;100.00
58979;BME280;44763;50.464;30.612;2024-01-10T03:11:40;101102.38;;;-4.17;100.00
58979;BME280;44763;50.464;30.612;2024-01-10T03:13:43;101106.96;;;-4.14;100.00
58979;BME280;44763;50.464;30.612;2024-01-10T03:15:47;101112.27;;;-4.05;100.00
58979;BME280;44763;50.464;30.612;2024-01-10T03:17:49;101110.28;;;-3.97;100.00
58979;BME280;44763;50.464;30.612;2024-01-10T03:19:52;101115.65;;;-3.89;100.00
58979;BME280;44763;50.464;30.612;2024-01-10T03:21:53;101108.77;;;-3.88;100.00
58979;BME280;44763;50.464;30.612;2024-01-10T03:23:57;101107.14;;;-3.90;100.00
58979;BME280;44763;50.464;30.612;2024-01-10T03:25:59;101107.66;;;-3.93;100.00
58979;BME280;44763;50.464;30.612;2024-01-10T03:28:01;101107.80;;;-3.96;100.00
58979;BME280;44763;50.464;30.612;2024-01-10T03:30:05;101112.24;;;-3.98;100.00
58979;BME280;44763;50.464;30.612;2024-01-10T03:32:07;101110.69;;;-3.99;100.00
58979;BME280;44763;50.464;30.612;2024-01-10T03:34:11;101098.90;;;-3.99;100.00
58979;BME280;44763;50.464;30.612;2024-01-10T03:36:15;101096.38;;;-4.01;100.00
58979;BME280;44763;50.464;30.612;2024-01-10T03:38:20;101094.27;;;-3.96;100.00
58979;BME280;44763;50.464;30.612;2024-01-10T03:40:22;101096.83;;;-3.88;100.00
58979;BME280;44763;50.464;30.612;2024-01-10T03:42:23;101098.34;;;-3.84;100.00
58979;BME280;44763;50.464;30.612;2024-01-10T03:44:26;101091.63;;;-3.81;100.00
58979;BME280;44763;50.464;30.612;2024-01-10T03:46:29;101094.14;;;-3.84;100.00
58979;BME280;44763;50.464;30.612;2024-01-10T03:48:31;101095.52;;;-3.90;100.00
58979;BME280;44763;50.464;30.612;2024-01-10T03:50:33;101092.59;;;-3.94;100.00
58979;BME280;44763;50.464;30.612;2024-01-10T03:52:35;101088.91;;;-3.97;100.00
58979;BME280;44763;50.464;30.612;2024-01-10T03:54:36;101096.07;;;-3.97;100.00
58979;BME280;44763;50.464;30.612;2024-01-10T03:56:40;101087.44;;;-3.99;100.00
58979;BME280;44763;50.464;30.612;2024-01-10T03:58:42;101085.72;;;-4.02;100.00
58979;BME280;44763;50.464;30.612;2024-01-10T04:00:44;101086.45;;;-4.00;100.00
58979;BME280;44763;50.464;30.612;2024-01-10T04:02:45;101089.58;;;-3.93;100.00
58979;BME280;44763;50.464;30.612;2024-01-10T04:04:50;101089.42;;;-3.90;100.00
58979;BME280;44763;50.464;30.612;2024-01-10T04:06:52;101092.81;;;-3.88;100.00
58979;BME280;44763;50.464;30.612;2024-01-10T04:08:53;101088.45;;;-3.87;100.00
58979;BME280;44763;50.464;30.612;2024-01-10T04:10:55;101083.31;;;-3.89;100.00
58979;BME280;44763;50.464;30.612;2024-01-10T04:12:58;101083.94;;;-3.91;100.00
58979;BME280;44763;50.464;30.612;2024-01-10T04:15:00;101080.93;;;-3.93;100.00
58979;BME280;44763;50.464;30.612;2024-01-10T04:17:02;101076.95;;;-3.94;100.00
58979;BME280;44763;50.464;30.612;2024-01-10T04:19:06;101071.86;;;-3.96;100.00
58979;BME280;44763;50.464;30.612;2024-01-10T04:21:08;101069.34;;;-3.98;100.00
58979;BME280;44763;50.464;30.612;2024-01-10T04:23:10;101069.45;;;-3.93;100.00
58979;BME280;44763;50.464;30.612;2024-01-10T04:25:12;101063.86;;;-3.86;100.00
58979;BME280;44763;50.464;30.612;2024-01-10T04:27:17;101065.27;;;-3.79;100.00
58979;BME280;44763;50.464;30.612;2024-01-10T04:29:20;101058.19;;;-3.73;100.00
58979;BME280;44763;50.464;30.612;2024-01-10T04:31:22;101052.45;;;-3.73;100.00
58979;BME280;44763;50.464;30.612;2024-01-10T04:33:24;101051.13;;;-3.78;100.00
58979;BME280;44763;50.464;30.612;2024-01-10T04:35:26;101058.33;;;-3.83;100.00
58979;BME280;44763;50.464;30.612;2024-01-10T04:37:28;101059.08;;;-3.87;100.00
58979;BME280;44763;50.464;30.612;2024-01-10T04:39:30;101061.65;;;-3.90;100.00
58979;BME280;44763;50.464;30.612;2024-01-10T04:41:32;101055.70;;;-3.96;100.00
58979;BME280;44763;50.464;30.612;2024-01-10T04:43:34;101068.52;;;-3.98;100.00
58979;BME280;44763;50.464;30.612;2024-01-10T04:45:35;101064.54;;;-3.95;100.00
58979;BME280;44763;50.464;30.612;2024-01-10T04:47:37;101071.11;;;-3.92;100.00
58979;BME280;44763;50.464;30.612;2024-01-10T04:49:39;101070.23;;;-3.88;100.00
58979;BME280;44763;50.464;30.612;2024-01-10T04:51:41;101066.04;;;-3.91;100.00
58979;BME280;44763;50.464;30.612;2024-01-10T04:53:43;101073.46;;;-3.97;100.00
58979;BME280;44763;50.464;30.612;2024-01-10T04:55:45;101074.50;;;-4.04;100.00
58979;BME280;44763;50.464;30.612;2024-01-10T04:57:52;101070.69;;;-4.11;100.00
58979;BME280;44763;50.464;30.612;2024-01-10T04:59:53;101077.27;;;-4.15;100.00
58979;BME280;44763;50.464;30.612;2024-01-10T05:01:55;101085.35;;;-4.09;100.00
58979;BME280;44763;50.464;30.612;2024-01-10T05:03:58;101084.00;;;-4.03;100.00
58979;BME280;44763;50.464;30.612;2024-01-10T05:05:59;101095.88;;;-4.01;100.00
58979;BME280;44763;50.464;30.612;2024-01-10T05:08:01;101096.54;;;-4.00;100.00
58979;BME280;44763;50.464;30.612;2024-01-10T05:10:04;101101.84;;;-4.02;100.00
58979;BME280;44763;50.464;30.612;2024-01-10T05:12:06;101106.88;;;-4.02;100.00
58979;BME280;44763;50.464;30.612;2024-01-10T05:14:08;101103.82;;;-4.03;100.00
58979;BME280;44763;50.464;30.612;2024-01-10T05:16:10;101108.83;;;-4.06;100.00
58979;BME280;44763;50.464;30.612;2024-01-10T05:18:12;101102.16;;;-4.08;100.00
58979;BME280;44763;50.464;30.612;2024-01-10T05:20:14;101112.38;;;-4.01;100.00
58979;BME280;44763;50.464;30.612;2024-01-10T05:22:16;101113.16;;;-3.92;100.00
58979;BME280;44763;50.464;30.612;2024-01-10T05:24:18;101110.77;;;-3.86;100.00
58979;BME280;44763;50.464;30.612;2024-01-10T05:26:21;101114.91;;;-3.82;100.00
58979;BME280;44763;50.464;30.612;2024-01-10T05:28:23;101112.17;;;-3.83;100.00
58979;BME280;44763;50.464;30.612;2024-01-10T05:30:25;101113.08;;;-3.87;100.00
58979;BME280;44763;50.464;30.612;2024-01-10T05:32:30;101112.14;;;-3.89;100.00
58979;BME280;44763;50.464;30.612;2024-01-10T05:34:32;101111.81;;;-3.93;100.00
58979;BME280;44763;50.464;30.612;2024-01-10T05:36:34;101122.92;;;-3.93;100.00
58979;BME280;44763;50.464;30.612;2024-01-10T05:38:38;101118.13;;;-3.84;100.00
58979;BME280;44763;50.464;30.612;2024-01-10T05:40:40;101115.77;;;-3.78;100.00
58979;BME280;44763;50.464;30.612;2024-01-10T05:42:42;101115.98;;;-3.75;100.00
58979;BME280;44763;50.464;30.612;2024-01-10T05:44:44;101118.66;;;-3.77;100.00
58979;BME280;44763;50.464;30.612;2024-01-10T05:46:46;101115.16;;;-3.80;100.00
58979;BME280;44763;50.464;30.612;2024-01-10T05:48:49;101106.01;;;-3.81;100.00
58979;BME280;44763;50.464;30.612;2024-01-10T05:50:51;101105.23;;;-3.86;100.00
58979;BME280;44763;50.464;30.612;2024-01-10T05:52:53;101099.73;;;-3.91;100.00
58979;BME280;44763;50.464;30.612;2024-01-10T05:54:55;101101.30;;;-3.87;100.00
58979;BME280;44763;50.464;30.612;2024-01-10T05:56:57;101095.41;;;-3.84;100.00
58979;BME280;44763;50.464;30.612;2024-01-10T05:58:59;101097.55;;;-3.82;100.00
58979;BME280;44763;50.464;30.612;2024-01-10T06:01:01;101099.84;;;-3.79;100.00
58979;BME280;44763;50.464;30.612;2024-01-10T06:03:03;101107.86;;;-3.80;100.00
58979;BME280;44763;50.464;30.612;2024-01-10T06:05:09;101110.33;;;-3.84;100.00
58979;BME280;44763;50.464;30.612;2024-01-10T06:07:11;101110.23;;;-3.86;100.00
58979;BME280;44763;50.464;30.612;2024-01-10T06:09:13;101105.45;;;-3.87;100.00
58979;BME280;44763;50.464;30.612;2024-01-10T06:11:15;101109.39;;;-3.90;100.00
58979;BME280;44763;50.464;30.612;2024-01-10T06:13:16;101106.91;;;-3.85;100.00
58979;BME280;44763;50.464;30.612;2024-01-10T06:15:19;101107.19;;;-3.77;100.00
58979;BME280;44763;50.464;30.612;2024-01-10T06:17:21;101110.39;;;-3.71;100.00
58979;BME280;44763;50.464;30.612;2024-01-10T06:19:23;101107.73;;;-3.67;100.00
58979;BME280;44763;50.464;30.612;2024-01-10T06:21:25;101112.60;;;-3.63;100.00
58979;BME280;44763;50.464;30.612;2024-01-10T06:23:27;101107.97;;;-3.68;100.00
58979;BME280;44763;50.464;30.612;2024-01-10T06:25:29;101109.90;;;-3.72;100.00
58979;BME280;44763;50.464;30.612;2024-01-10T06:27:31;101109.20;;;-3.72;100.00
58979;BME280;44763;50.464;30.612;2024-01-10T06:32:13;101115.30;;;-3.69;100.00
58979;BME280;44763;50.464;30.612;2024-01-10T06:34:16;101119.31;;;-3.52;100.00
58979;BME280;44763;50.464;30.612;2024-01-10T06:36:18;101118.89;;;-3.40;100.00
58979;BME280;44763;50.464;30.612;2024-01-10T06:38:19;101125.05;;;-3.35;100.00
58979;BME280;44763;50.464;30.612;2024-01-10T06:40:24;101127.74;;;-3.40;100.00
58979;BME280;44763;50.464;30.612;2024-01-10T06:42:26;101127.61;;;-3.48;100.00
58979;BME280;44763;50.464;30.612;2024-01-10T06:44:28;101128.61;;;-3.50;100.00
58979;BME280;44763;50.464;30.612;2024-01-10T06:46:31;101127.41;;;-3.51;100.00
58979;BME280;44763;50.464;30.612;2024-01-10T06:48:33;101122.80;;;-3.52;100.00
58979;BME280;44763;50.464;30.612;2024-01-10T06:50:35;101120.18;;;-3.49;100.00
58979;BME280;44763;50.464;30.612;2024-01-10T06:52:37;101125.92;;;-3.39;100.00
58979;BME280;44763;50.464;30.612;2024-01-10T06:54:39;101123.46;;;-3.32;100.00
58979;BME280;44763;50.464;30.612;2024-01-10T06:56:41;101132.69;;;-3.32;100.00
58979;BME280;44763;50.464;30.612;2024-01-10T06:58:46;101125.34;;;-3.31;100.00
58979;BME280;44763;50.464;30.612;2024-01-10T07:00:48;101132.44;;;-3.30;100.00
58979;BME280;44763;50.464;30.612;2024-01-10T07:02:53;101131.43;;;-3.34;100.00
58979;BME280;44763;50.464;30.612;2024-01-10T07:04:56;101131.89;;;-3.37;100.00
58979;BME280;44763;50.464;30.612;2024-01-10T07:06:58;101131.40;;;-3.37;100.00
58979;BME280;44763;50.464;30.612;2024-01-10T07:09:00;101131.59;;;-3.34;100.00
58979;BME280;44763;50.464;30.612;2024-01-10T07:11:02;101123.60;;;-3.24;100.00
58979;BME280;44763;50.464;30.612;2024-01-10T07:13:04;101124.31;;;-3.14;100.00
58979;BME280;44763;50.464;30.612;2024-01-10T07:15:07;101117.65;;;-3.07;100.00
58979;BME280;44763;50.464;30.612;2024-01-10T07:17:09;101116.83;;;-3.08;100.00
58979;BME280;44763;50.464;30.612;2024-01-10T07:19:11;101114.19;;;-3.17;100.00
58979;BME280;44763;50.464;30.612;2024-01-10T07:21:15;101119.77;;;-3.24;100.00
58979;BME280;44763;50.464;30.612;2024-01-10T07:23:16;101111.93;;;-3.27;100.00
58979;BME280;44763;50.464;30.612;2024-01-10T07:25:19;101114.12;;;-3.28;100.00
58979;BME280;44763;50.464;30.612;2024-01-10T07:27:24;101113.17;;;-3.24;100.00
58979;BME280;44763;50.464;30.612;2024-01-10T07:29:26;101118.48;;;-3.12;100.00
58979;BME280;44763;50.464;30.612;2024-01-10T07:31:29;101116.75;;;-3.03;100.00
58979;BME280;44763;50.464;30.612;2024-01-10T07:33:31;101116.83;;;-2.94;100.00
58979;BME280;44763;50.464;30.612;2024-01-10T07:35:33;101116.83;;;-2.95;100.00
58979;BME280;44763;50.464;30.612;2024-01-10T07:37:38;101114.31;;;-2.96;100.00
58979;BME280;44763;50.464;30.612;2024-01-10T07:39:41;101117.77;;;-2.96;100.00
58979;BME280;44763;50.464;30.612;2024-01-10T07:41:43;101117.23;;;-2.95;100.00
58979;BME280;44763;50.464;30.612;2024-01-10T07:43:45;101122.20;;;-2.98;100.00
58979;BME280;44763;50.464;30.612;2024-01-10T07:45:47;101121.27;;;-3.00;100.00
58979;BME280;44763;50.464;30.612;2024-01-10T07:47:49;101123.09;;;-2.94;100.00
58979;BME280;44763;50.464;30.612;2024-01-10T07:49:51;101121.38;;;-2.85;100.00
58979;BME280;44763;50.464;30.612;2024-01-10T07:51:53;101121.56;;;-2.79;100.00
58979;BME280;44763;50.464;30.612;2024-01-10T07:53:56;101124.69;;;-2.76;100.00
58979;BME280;44763;50.464;30.612;2024-01-10T07:55:58;101130.12;;;-2.77;100.00
58979;BME280;44763;50.464;30.612;2024-01-10T07:58:01;101131.35;;;-2.77;100.00
58979;BME280;44763;50.464;30.612;2024-01-10T08:00:06;101136.94;;;-2.77;100.00
58979;BME280;44763;50.464;30.612;2024-01-10T08:02:12;101134.21;;;-2.81;100.00
58979;BME280;44763;50.464;30.612;2024-01-10T08:04:16;101126.59;;;-2.79;100.00
58979;BME280;44763;50.464;30.612;2024-01-10T08:06:18;101123.48;;;-2.70;100.00
58979;BME280;44763;50.464;30.612;2024-01-10T08:08:30;101127.41;;;-2.62;100.00
58979;BME280;44763;50.464;30.612;2024-01-10T08:10:32;101127.76;;;-2.62;100.00
58979;BME280;44763;50.464;30.612;2024-01-10T08:12:36;101131.36;;;-2.61;100.00
58979;BME280;44763;50.464;30.612;2024-01-10T08:14:39;101134.39;;;-2.62;100.00
58979;BME280;44763;50.464;30.612;2024-01-10T08:16:41;101137.63;;;-2.64;100.00
58979;BME280;44763;50.464;30.612;2024-01-10T08:18:43;101138.80;;;-2.69;100.00
58979;BME280;44763;50.464;30.612;2024-01-10T08:20:45;101143.92;;;-2.74;100.00
58979;BME280;44763;50.464;30.612;2024-01-10T08:22:47;101149.88;;;-2.68;100.00
58979;BME280;44763;50.464;30.612;2024-01-10T08:24:50;101149.18;;;-2.62;100.00
58979;BME280;44763;50.464;30.612;2024-01-10T08:26:53;101150.52;;;-2.58;100.00
58979;BME280;44763;50.464;30.612;2024-01-10T08:28:55;101146.57;;;-2.62;100.00
58979;BME280;44763;50.464;30.612;2024-01-10T08:30:58;101142.15;;;-2.67;100.00
58979;BME280;44763;50.464;30.612;2024-01-10T08:33:05;101139.99;;;-2.72;100.00
58979;BME280;44763;50.464;30.612;2024-01-10T08:35:08;101145.23;;;-2.76;100.00
58979;BME280;44763;50.464;30.612;2024-01-10T08:37:11;101143.13;;;-2.79;100.00
58979;BME280;44763;50.464;30.612;2024-01-10T08:39:13;101146.19;;;-2.74;100.00
58979;BME280;44763;50.464;30.612;2024-01-10T08:41:14;101150.11;;;-2.66;100.00
58979;BME280;44763;50.464;30.612;2024-01-10T08:43:16;101156.41;;;-2.60;100.00
58979;BME280;44763;50.464;30.612;2024-01-10T08:45:19;101156.48;;;-2.59;100.00
58979;BME280;44763;50.464;30.612;2024-01-10T08:47:21;101151.63;;;-2.66;100.00
58979;BME280;44763;50.464;30.612;2024-01-10T08:49:23;101148.80;;;-2.71;100.00
58979;BME280;44763;50.464;30.612;2024-01-10T08:51:26;101146.97;;;-2.76;100.00
58979;BME280;44763;50.464;30.612;2024-01-10T08:53:28;101151.95;;;-2.78;100.00
58979;BME280;44763;50.464;30.612;2024-01-10T08:55:31;101153.89;;;-2.68;100.00
58979;BME280;44763;50.464;30.612;2024-01-10T08:57:33;101139.61;;;-2.62;100.00
58979;BME280;44763;50.464;30.612;2024-01-10T08:59:35;101145.33;;;-2.62;100.00
58979;BME280;44763;50.464;30.612;2024-01-10T09:01:38;101146.66;;;-2.64;100.00
58979;BME280;44763;50.464;30.612;2024-01-10T09:03:41;101139.99;;;-2.66;100.00
58979;BME280;44763;50.464;30.612;2024-01-10T09:05:43;101136.66;;;-2.68;100.00
58979;BME280;44763;50.464;30.612;2024-01-10T09:08:02;101135.61;;;-2.72;100.00
58979;BME280;44763;50.464;30.612;2024-01-10T09:10:05;101129.35;;;-2.78;100.00
58979;BME280;44763;50.464;30.612;2024-01-10T09:12:09;101131.29;;;-2.72;100.00
58979;BME280;44763;50.464;30.612;2024-01-10T09:14:11;101129.56;;;-2.63;100.00
58979;BME280;44763;50.464;30.612;2024-01-10T09:16:12;101127.42;;;-2.56;100.00
58979;BME280;44763;50.464;30.612;2024-01-10T09:18:15;101122.56;;;-2.56;100.00
58979;BME280;44763;50.464;30.612;2024-01-10T09:20:17;101121.05;;;-2.60;100.00
58979;BME280;44763;50.464;30.612;2024-01-10T09:22:19;101120.11;;;-2.65;100.00
58979;BME280;44763;50.464;30.612;2024-01-10T09:24:21;101117.88;;;-2.68;100.00
58979;BME280;44763;50.464;30.612;2024-01-10T09:26:30;101111.89;;;-2.70;100.00
58979;BME280;44763;50.464;30.612;2024-01-10T09:28:32;101112.65;;;-2.62;100.00
58979;BME280;44763;50.464;30.612;2024-01-10T09:30:34;101113.07;;;-2.51;100.00
58979;BME280;44763;50.464;30.612;2024-01-10T09:32:39;101109.52;;;-2.43;100.00
58979;BME280;44763;50.464;30.612;2024-01-10T09:34:42;101113.60;;;-2.45;100.00
58979;BME280;44763;50.464;30.612;2024-01-10T09:36:44;101112.31;;;-2.50;100.00
58979;BME280;44763;50.464;30.612;2024-01-10T09:38:46;101113.05;;;-2.50;100.00
58979;BME280;44763;50.464;30.612;2024-01-10T09:40:48;101111.41;;;-2.49;100.00
58979;BME280;44763;50.464;30.612;2024-01-10T09:42:51;101114.52;;;-2.49;100.00
58979;BME280;44763;50.464;30.612;2024-01-10T09:44:53;101112.19;;;-2.41;100.00
58979;BME280;44763;50.464;30.612;2024-01-10T09:46:55;101114.65;;;-2.29;100.00
58979;BME280;44763;50.464;30.612;2024-01-10T09:48:58;101115.58;;;-2.21;100.00
58979;BME280;44763;50.464;30.612;2024-01-10T09:51:03;101113.23;;;-2.23;100.00
58979;BME280;44763;50.464;30.612;2024-01-10T09:53:06;101112.71;;;-2.29;100.00
58979;BME280;44763;50.464;30.612;2024-01-10T09:55:09;101110.41;;;-2.34;100.00
58979;BME280;44763;50.464;30.612;2024-01-10T09:57:12;101111.08;;;-2.37;100.00
58979;BME280;44763;50.464;30.612;2024-01-10T09:59:16;101107.27;;;-2.37;100.00
58979;BME280;44763;50.464;30.612;2024-01-10T10:01:19;101106.09;;;-2.35;100.00
58979;BME280;44763;50.464;30.612;2024-01-10T10:03:22;101101.16;;;-2.22;100.00
58979;BME280;44763;50.464;30.612;2024-01-10T10:05:25;101107.80;;;-2.13;100.00
58979;BME280;44763;50.464;30.612;2024-01-10T10:07:29;101108.86;;;-2.13;100.00
58979;BME280;44763;50.464;30.612;2024-01-10T10:09:31;101110.91;;;-2.15;100.00
58979;BME280;44763;50.464;30.612;2024-01-10T10:11:33;101111.29;;;-2.19;100.00
58979;BME280;44763;50.464;30.612;2024-01-10T10:13:35;101104.66;;;-2.22;100.00
58979;BME280;44763;50.464;30.612;2024-01-10T10:15:43;101100.70;;;-2.26;100.00
58979;BME280;44763;50.464;30.612;2024-01-10T10:17:47;101107.02;;;-2.21;100.00
58979;BME280;44763;50.464;30.612;2024-01-10T10:19:49;101107.61;;;-2.09;100.00
58979;BME280;44763;50.464;30.612;2024-01-10T10:21:51;101103.16;;;-2.01;100.00
58979;BME280;44763;50.464;30.612;2024-01-10T10:23:58;101103.71;;;-2.02;100.00
58979;BME280;44763;50.464;30.612;2024-01-10T10:26:16;101104.66;;;-2.09;100.00
58979;BME280;44763;50.464;30.612;2024-01-10T10:28:28;101101.92;;;-2.17;100.00